Huvudsida
METAR-TAF:

METAR-TAF

Flygplatser :

Pescara, Italien

latitud: 42-26N, longitud: 014-12E, höjd: 10 m

Aktuellt väderrapport

Denna rapport gjordes för 1 timme och 19 minuter sedan, klockan 20:50 UTC
Vind 5 kt från syd/sydväst
Temperatur 12°C
Fuktighet 82%
Tryck 1007 hPa
Sikt 10 km eller mer
Inga moln under 1 500 m eller inga cumulonimbus

METAR: LIBP 172050Z 21005KT CAVOK 12/09 Q1007

Tid: 23:09 (22:09 UTC)

Väderprognos

Denna rapport gjordes för 5 timmar och 9 minuter sedan, klockan 17:00 UTC
Prognos gäller från 17 kl. 18 UTC till 18 kl. 18 UTC
Vind 10 kt från sydväst
Sikt 10 km eller mer
Spridda moln på en höjd av 2000 ft
Brutna moln på en höjd av 5000 ft

TAF: LIBP 171700Z 1718/1818 22010KT 9999 SCT020 BKN050

Aktuella väderrapporter och prognoser från 4000 flygplatser (METAR- och TAF-rapporter).

De tillgängliga stationerna syns som gula och röda prickar på kartan.

För musen över prickarna för att se namnen på stationerna.

Klicka sedan för att få väderrapporter och prognoser.

För att ändra kartan: Klicka på de gröna knapparna med ett svart kors på för att zooma in; den gröna knappen med ett streck på för att zooma ut; eller på de gröna pilarna för angränsande kartor.


METAR-TAF: